Terminal Aerodrome Forecast
Issued by NWS Wilmington, OH

Current Version | Previous Version | Graphics & Text | Print | Product List | Glossary On
Versions: 1 2 3 4 5 6 7 8 9 10 11 12 13 14 15 16 17 18 19 20 21 22 23 24
000
FTUS41 KILN 302333
TAFDAY
TAF
KDAY 302333Z 3100/3124 27006KT P6SM SCT045
     FM310200 24004KT P6SM SKC
     FM310800 25003KT 3SM BR SCT003
      TEMPO 3110/3112 1SM BR
     FM311200 27005KT 5SM BR OVC012
     FM311400 27006KT P6SM BKN025
     FM311700 27008KT P6SM SCT040=

USA.gov is the U.S. government's official web portal to all federal, state and local government web resources and services.